sensor_id;sensor_type;location;lat;lon;timestamp;pressure;altitude;pressure_sealevel;temperature;humidity
17521;BME280;8878;-33.370;-70.552;2022-09-01T00:00:47;92517.91;;;9.92;100.00
17521;BME280;8878;-33.370;-70.552;2022-09-01T00:03:19;92517.56;;;9.78;100.00
17521;BME280;8878;-33.370;-70.552;2022-09-01T00:05:50;92517.69;;;9.66;100.00
17521;BME280;8878;-33.370;-70.552;2022-09-01T00:08:21;92519.84;;;9.69;100.00
17521;BME280;8878;-33.370;-70.552;2022-09-01T00:10:50;92518.03;;;9.75;100.00
17521;BME280;8878;-33.370;-70.552;2022-09-01T00:13:21;92519.41;;;9.82;100.00
17521;BME280;8878;-33.370;-70.552;2022-09-01T00:15:50;92519.72;;;9.86;100.00
17521;BME280;8878;-33.370;-70.552;2022-09-01T00:18:20;92517.63;;;9.88;100.00
17521;BME280;8878;-33.370;-70.552;2022-09-01T00:20:49;92519.00;;;9.96;100.00
17521;BME280;8878;-33.370;-70.552;2022-09-01T00:23:19;92524.56;;;9.99;100.00
17521;BME280;8878;-33.370;-70.552;2022-09-01T00:25:48;92517.22;;;10.01;100.00
17521;BME280;8878;-33.370;-70.552;2022-09-01T00:28:17;92521.97;;;10.04;100.00
17521;BME280;8878;-33.370;-70.552;2022-09-01T00:30:49;92509.09;;;10.08;100.00
17521;BME280;8878;-33.370;-70.552;2022-09-01T00:33:19;92507.72;;;10.05;100.00
17521;BME280;8878;-33.370;-70.552;2022-09-01T00:35:48;92513.00;;;10.05;100.00
17521;BME280;8878;-33.370;-70.552;2022-09-01T00:38:18;92504.06;;;10.06;100.00
17521;BME280;8878;-33.370;-70.552;2022-09-01T00:40:47;92506.44;;;10.08;100.00
17521;BME280;8878;-33.370;-70.552;2022-09-01T00:43:21;92511.72;;;10.08;100.00
17521;BME280;8878;-33.370;-70.552;2022-09-01T00:45:52;92511.72;;;10.08;100.00
17521;BME280;8878;-33.370;-70.552;2022-09-01T00:48:23;92514.31;;;10.03;100.00
17521;BME280;8878;-33.370;-70.552;2022-09-01T00:50:53;92519.78;;;9.96;100.00
17521;BME280;8878;-33.370;-70.552;2022-09-01T00:53:23;92522.88;;;9.88;100.00
17521;BME280;8878;-33.370;-70.552;2022-09-01T00:55:52;92517.91;;;9.92;100.00
17521;BME280;8878;-33.370;-70.552;2022-09-01T00:58:22;92519.78;;;9.96;100.00
17521;BME280;8878;-33.370;-70.552;2022-09-01T01:00:53;92529.31;;;10.02;100.00
17521;BME280;8878;-33.370;-70.552;2022-09-01T01:03:22;92529.31;;;10.02;100.00
17521;BME280;8878;-33.370;-70.552;2022-09-01T01:05:54;92521.72;;;10.06;100.00
17521;BME280;8878;-33.370;-70.552;2022-09-01T01:08:27;92518.28;;;10.05;100.00
17521;BME280;8878;-33.370;-70.552;2022-09-01T01:11:00;92525.63;;;10.03;100.00
17521;BME280;8878;-33.370;-70.552;2022-09-01T01:13:30;92522.97;;;9.98;100.00
17521;BME280;8878;-33.370;-70.552;2022-09-01T01:16:04;92515.88;;;10.04;100.00
17521;BME280;8878;-33.370;-70.552;2022-09-01T01:18:33;92519.78;;;9.96;100.00
17521;BME280;8878;-33.370;-70.552;2022-09-01T01:21:06;92527.41;;;9.61;100.00
17521;BME280;8878;-33.370;-70.552;2022-09-01T01:23:58;92523.44;;;9.58;100.00
17521;BME280;8878;-33.370;-70.552;2022-09-01T01:26:31;92515.75;;;9.52;100.00
17521;BME280;8878;-33.370;-70.552;2022-09-01T01:29:01;92522.06;;;9.51;100.00
17521;BME280;8878;-33.370;-70.552;2022-09-01T01:31:30;92527.97;;;9.36;100.00
17521;BME280;8878;-33.370;-70.552;2022-09-01T01:34:01;92525.16;;;9.42;100.00
17521;BME280;8878;-33.370;-70.552;2022-09-01T01:36:33;92529.03;;;9.35;100.00
17521;BME280;8878;-33.370;-70.552;2022-09-01T01:39:08;92534.03;;;9.36;100.00
17521;BME280;8878;-33.370;-70.552;2022-09-01T01:41:40;92535.28;;;9.29;100.00
17521;BME280;8878;-33.370;-70.552;2022-09-01T01:44:12;92537.47;;;9.37;100.00
17521;BME280;8878;-33.370;-70.552;2022-09-01T01:46:44;92532.28;;;9.47;100.00
17521;BME280;8878;-33.370;-70.552;2022-09-01T01:49:14;92533.09;;;9.48;100.00
17521;BME280;8878;-33.370;-70.552;2022-09-01T01:51:45;92534.69;;;9.49;100.00
17521;BME280;8878;-33.370;-70.552;2022-09-01T01:54:15;92533.97;;;9.31;100.00
17521;BME280;8878;-33.370;-70.552;2022-09-01T01:56:47;92536.75;;;9.20;100.00
17521;BME280;8878;-33.370;-70.552;2022-09-01T01:59:16;92533.28;;;9.14;100.00
17521;BME280;8878;-33.370;-70.552;2022-09-01T02:01:47;92537.81;;;8.97;100.00
17521;BME280;8878;-33.370;-70.552;2022-09-01T02:04:17;92543.59;;;8.94;100.00
17521;BME280;8878;-33.370;-70.552;2022-09-01T02:06:48;92536.34;;;9.06;100.00
17521;BME280;8878;-33.370;-70.552;2022-09-01T02:09:20;92543.38;;;9.22;100.00
17521;BME280;8878;-33.370;-70.552;2022-09-01T02:11:52;92545.41;;;9.15;100.00
17521;BME280;8878;-33.370;-70.552;2022-09-01T02:14:23;92546.44;;;9.14;100.00
17521;BME280;8878;-33.370;-70.552;2022-09-01T02:16:53;92546.19;;;9.16;100.00
17521;BME280;8878;-33.370;-70.552;2022-09-01T02:19:22;92551.91;;;9.08;100.00
17521;BME280;8878;-33.370;-70.552;2022-09-01T02:21:52;92552.13;;;9.06;100.00
17521;BME280;8878;-33.370;-70.552;2022-09-01T02:24:22;92559.28;;;9.11;100.00
17521;BME280;8878;-33.370;-70.552;2022-09-01T02:26:54;92556.72;;;9.16;100.00
17521;BME280;8878;-33.370;-70.552;2022-09-01T02:29:24;92553.59;;;9.19;100.00
17521;BME280;8878;-33.370;-70.552;2022-09-01T02:31:55;92560.75;;;9.23;100.00
17521;BME280;8878;-33.370;-70.552;2022-09-01T02:34:25;92556.41;;;9.12;100.00
17521;BME280;8878;-33.370;-70.552;2022-09-01T02:36:56;92561.91;;;9.11;100.00
17521;BME280;8878;-33.370;-70.552;2022-09-01T02:39:27;92563.75;;;9.10;100.00
17521;BME280;8878;-33.370;-70.552;2022-09-01T02:42:00;92574.78;;;9.07;100.00
17521;BME280;8878;-33.370;-70.552;2022-09-01T02:44:30;92577.97;;;9.09;100.00
17521;BME280;8878;-33.370;-70.552;2022-09-01T02:46:59;92573.38;;;8.99;100.00
17521;BME280;8878;-33.370;-70.552;2022-09-01T02:49:31;92583.72;;;9.06;100.00
17521;BME280;8878;-33.370;-70.552;2022-09-01T02:52:02;92577.97;;;9.09;100.00
17521;BME280;8878;-33.370;-70.552;2022-09-01T02:54:32;92580.44;;;8.94;100.00
17521;BME280;8878;-33.370;-70.552;2022-09-01T02:57:04;92581.50;;;8.98;100.00
17521;BME280;8878;-33.370;-70.552;2022-09-01T02:59:34;92580.44;;;8.94;100.00
17521;BME280;8878;-33.370;-70.552;2022-09-01T03:02:04;92590.63;;;8.90;100.00
17521;BME280;8878;-33.370;-70.552;2022-09-01T03:04:34;92579.50;;;8.83;100.00
17521;BME280;8878;-33.370;-70.552;2022-09-01T03:07:04;92583.91;;;8.78;100.00
17521;BME280;8878;-33.370;-70.552;2022-09-01T03:09:34;92580.03;;;8.63;100.00
17521;BME280;8878;-33.370;-70.552;2022-09-01T03:12:06;92590.00;;;8.61;100.00
17521;BME280;8878;-33.370;-70.552;2022-09-01T03:14:36;92588.41;;;8.60;100.00
17521;BME280;8878;-33.370;-70.552;2022-09-01T03:17:06;92582.66;;;8.63;100.00
17521;BME280;8878;-33.370;-70.552;2022-09-01T03:19:35;92583.47;;;8.64;100.00
17521;BME280;8878;-33.370;-70.552;2022-09-01T03:25:33;92579.06;;;8.31;100.00
17521;BME280;8878;-33.370;-70.552;2022-09-01T03:28:05;92583.03;;;8.17;100.00
17521;BME280;8878;-33.370;-70.552;2022-09-01T03:30:36;92581.34;;;8.11;100.00
17521;BME280;8878;-33.370;-70.552;2022-09-01T03:33:07;92579.03;;;8.14;100.00
17521;BME280;8878;-33.370;-70.552;2022-09-01T03:35:36;92573.63;;;8.21;100.00
17521;BME280;8878;-33.370;-70.552;2022-09-01T03:38:06;92578.81;;;8.16;100.00
17521;BME280;8878;-33.370;-70.552;2022-09-01T03:40:36;92573.22;;;8.12;100.00
17521;BME280;8878;-33.370;-70.552;2022-09-01T03:43:08;92574.34;;;8.16;100.00
17521;BME280;8878;-33.370;-70.552;2022-09-01T03:45:40;92579.91;;;8.20;100.00
17521;BME280;8878;-33.370;-70.552;2022-09-01T03:48:10;92582.13;;;8.28;100.00
17521;BME280;8878;-33.370;-70.552;2022-09-01T03:50:43;92584.41;;;8.36;100.00
17521;BME280;8878;-33.370;-70.552;2022-09-01T03:53:15;92584.16;;;8.38;100.00
17521;BME280;8878;-33.370;-70.552;2022-09-01T03:55:47;92585.66;;;8.17;100.00
17521;BME280;8878;-33.370;-70.552;2022-09-01T03:58:19;92572.25;;;8.18;100.00
17521;BME280;8878;-33.370;-70.552;2022-09-01T04:00:52;92575.06;;;8.29;100.00
17521;BME280;8878;-33.370;-70.552;2022-09-01T04:03:23;92570.19;;;8.20;100.00
17521;BME280;8878;-33.370;-70.552;2022-09-01T04:05:53;92572.53;;;8.34;100.00
17521;BME280;8878;-33.370;-70.552;2022-09-01T04:08:23;92570.28;;;8.42;100.00
17521;BME280;8878;-33.370;-70.552;2022-09-01T04:10:58;92566.84;;;8.42;100.00
17521;BME280;8878;-33.370;-70.552;2022-09-01T04:13:34;92569.19;;;8.38;100.00
17521;BME280;8878;-33.370;-70.552;2022-09-01T04:16:04;92564.16;;;8.37;100.00
17521;BME280;8878;-33.370;-70.552;2022-09-01T04:18:56;92562.78;;;8.34;100.00
17521;BME280;8878;-33.370;-70.552;2022-09-01T04:21:26;92568.56;;;8.31;100.00
17521;BME280;8878;-33.370;-70.552;2022-09-01T04:23:56;92569.72;;;8.40;100.00
17521;BME280;8878;-33.370;-70.552;2022-09-01T04:26:31;92574.97;;;8.40;100.00
17521;BME280;8878;-33.370;-70.552;2022-09-01T04:29:02;92572.91;;;8.42;100.00
17521;BME280;8878;-33.370;-70.552;2022-09-01T04:31:32;92574.69;;;8.37;100.00
17521;BME280;8878;-33.370;-70.552;2022-09-01T04:34:04;92571.63;;;8.45;100.00
17521;BME280;8878;-33.370;-70.552;2022-09-01T04:36:40;92569.25;;;8.43;100.00
17521;BME280;8878;-33.370;-70.552;2022-09-01T04:39:11;92576.50;;;8.36;100.00
17521;BME280;8878;-33.370;-70.552;2022-09-01T04:41:41;92568.91;;;8.40;100.00
17521;BME280;8878;-33.370;-70.552;2022-09-01T04:44:14;92570.50;;;8.41;100.00
17521;BME280;8878;-33.370;-70.552;2022-09-01T04:46:45;92574.13;;;8.35;100.00
17521;BME280;8878;-33.370;-70.552;2022-09-01T04:49:18;92576.97;;;8.33;100.00
17521;BME280;8878;-33.370;-70.552;2022-09-01T04:51:50;92582.59;;;8.25;100.00
17521;BME280;8878;-33.370;-70.552;2022-09-01T04:54:21;92579.84;;;8.32;100.00
17521;BME280;8878;-33.370;-70.552;2022-09-01T04:56:51;92579.25;;;8.46;100.00
17521;BME280;8878;-33.370;-70.552;2022-09-01T04:59:23;92567.44;;;8.66;100.00
17521;BME280;8878;-33.370;-70.552;2022-09-01T05:01:55;92569.72;;;8.79;100.00
17521;BME280;8878;-33.370;-70.552;2022-09-01T05:04:27;92578.50;;;8.89;100.00
17521;BME280;8878;-33.370;-70.552;2022-09-01T05:06:59;92582.50;;;8.92;100.00
17521;BME280;8878;-33.370;-70.552;2022-09-01T05:09:31;92570.38;;;8.69;100.00
17521;BME280;8878;-33.370;-70.552;2022-09-01T05:12:02;92576.53;;;8.58;100.00
17521;BME280;8878;-33.370;-70.552;2022-09-01T05:14:41;92571.53;;;8.56;100.00
17521;BME280;8878;-33.370;-70.552;2022-09-01T05:17:11;92577.34;;;8.58;100.00
17521;BME280;8878;-33.370;-70.552;2022-09-01T05:19:43;92570.78;;;8.61;100.00
17521;BME280;8878;-33.370;-70.552;2022-09-01T05:22:14;92579.56;;;8.67;100.00
17521;BME280;8878;-33.370;-70.552;2022-09-01T05:24:47;92574.84;;;8.69;100.00
17521;BME280;8878;-33.370;-70.552;2022-09-01T05:27:18;92581.22;;;8.73;100.00
17521;BME280;8878;-33.370;-70.552;2022-09-01T05:29:50;92577.16;;;8.65;100.00
17521;BME280;8878;-33.370;-70.552;2022-09-01T05:32:20;92572.88;;;8.59;100.00
17521;BME280;8878;-33.370;-70.552;2022-09-01T05:34:51;92573.06;;;8.52;100.00
17521;BME280;8878;-33.370;-70.552;2022-09-01T05:37:21;92569.28;;;8.65;100.00
17521;BME280;8878;-33.370;-70.552;2022-09-01T05:39:51;92568.25;;;8.66;100.00
17521;BME280;8878;-33.370;-70.552;2022-09-01T05:42:21;92573.97;;;8.63;100.00
17521;BME280;8878;-33.370;-70.552;2022-09-01T05:44:52;92572.09;;;8.58;100.00
17521;BME280;8878;-33.370;-70.552;2022-09-01T05:47:21;92573.19;;;8.62;100.00
17521;BME280;8878;-33.370;-70.552;2022-09-01T05:49:52;92568.94;;;8.61;100.00
17521;BME280;8878;-33.370;-70.552;2022-09-01T05:52:24;92564.53;;;8.45;100.00
17521;BME280;8878;-33.370;-70.552;2022-09-01T05:54:54;92558.63;;;8.55;100.00
17521;BME280;8878;-33.370;-70.552;2022-09-01T05:57:25;92555.56;;;8.63;100.00
17521;BME280;8878;-33.370;-70.552;2022-09-01T05:59:59;92563.94;;;8.60;100.00
17521;BME280;8878;-33.370;-70.552;2022-09-01T06:02:28;92560.78;;;8.58;100.00
17521;BME280;8878;-33.370;-70.552;2022-09-01T06:04:59;92555.31;;;8.64;100.00
17521;BME280;8878;-33.370;-70.552;2022-09-01T06:07:29;92562.13;;;8.82;100.00
17521;BME280;8878;-33.370;-70.552;2022-09-01T06:09:59;92562.44;;;8.86;100.00
17521;BME280;8878;-33.370;-70.552;2022-09-01T06:12:29;92560.69;;;8.75;100.00
17521;BME280;8878;-33.370;-70.552;2022-09-01T06:15:02;92558.56;;;8.50;100.00
17521;BME280;8878;-33.370;-70.552;2022-09-01T06:17:41;92555.69;;;8.51;100.00
17521;BME280;8878;-33.370;-70.552;2022-09-01T06:20:11;92566.69;;;8.48;100.00
17521;BME280;8878;-33.370;-70.552;2022-09-01T06:22:40;92567.81;;;8.52;100.00
17521;BME280;8878;-33.370;-70.552;2022-09-01T06:25:10;92566.69;;;8.48;100.00
17521;BME280;8878;-33.370;-70.552;2022-09-01T06:27:40;92563.25;;;8.48;100.00
17521;BME280;8878;-33.370;-70.552;2022-09-01T06:30:13;92567.28;;;8.55;100.00
17521;BME280;8878;-33.370;-70.552;2022-09-01T06:32:43;92566.31;;;8.61;100.00
17521;BME280;8878;-33.370;-70.552;2022-09-01T06:35:16;92565.59;;;8.44;100.00
17521;BME280;8878;-33.370;-70.552;2022-09-01T06:37:46;92569.47;;;8.42;100.00
17521;BME280;8878;-33.370;-70.552;2022-09-01T06:40:16;92578.81;;;8.33;100.00
17521;BME280;8878;-33.370;-70.552;2022-09-01T06:42:47;92583.03;;;8.34;100.00
17521;BME280;8878;-33.370;-70.552;2022-09-01T06:45:22;92575.38;;;8.32;100.00
17521;BME280;8878;-33.370;-70.552;2022-09-01T06:47:51;92582.13;;;8.28;100.00
17521;BME280;8878;-33.370;-70.552;2022-09-01T06:50:22;92579.75;;;8.26;100.00
17521;BME280;8878;-33.370;-70.552;2022-09-01T06:52:51;92577.06;;;8.21;100.00
17521;BME280;8878;-33.370;-70.552;2022-09-01T06:55:27;92582.22;;;8.33;100.00
17521;BME280;8878;-33.370;-70.552;2022-09-01T06:57:59;92591.53;;;8.41;100.00
17521;BME280;8878;-33.370;-70.552;2022-09-01T07:00:33;92592.50;;;8.35;100.00
17521;BME280;8878;-33.370;-70.552;2022-09-01T07:03:08;92587.03;;;8.36;100.00
17521;BME280;8878;-33.370;-70.552;2022-09-01T07:05:39;92594.84;;;8.31;100.00
17521;BME280;8878;-33.370;-70.552;2022-09-01T07:08:09;92597.50;;;8.19;100.00
17521;BME280;8878;-33.370;-70.552;2022-09-01T07:10:45;92593.22;;;8.30;100.00
17521;BME280;8878;-33.370;-70.552;2022-09-01T07:13:16;92596.19;;;8.34;100.00
17521;BME280;8878;-33.370;-70.552;2022-09-01T07:15:51;92593.13;;;8.25;100.00
17521;BME280;8878;-33.370;-70.552;2022-09-01T07:18:22;92597.47;;;8.31;100.00
17521;BME280;8878;-33.370;-70.552;2022-09-01T07:20:54;92592.09;;;8.26;100.00
17521;BME280;8878;-33.370;-70.552;2022-09-01T07:23:24;92589.00;;;8.29;100.00
17521;BME280;8878;-33.370;-70.552;2022-09-01T07:25:54;92585.00;;;8.26;100.00
17521;BME280;8878;-33.370;-70.552;2022-09-01T07:28:25;92584.53;;;8.30;100.00
17521;BME280;8878;-33.370;-70.552;2022-09-01T07:31:00;92584.88;;;8.33;100.00
17521;BME280;8878;-33.370;-70.552;2022-09-01T07:33:31;92582.00;;;8.35;100.00
17521;BME280;8878;-33.370;-70.552;2022-09-01T07:36:01;92579.38;;;8.35;100.00
17521;BME280;8878;-33.370;-70.552;2022-09-01T07:38:31;92575.47;;;8.37;100.00
17521;BME280;8878;-33.370;-70.552;2022-09-01T07:41:02;92573.69;;;8.26;100.00
17521;BME280;8878;-33.370;-70.552;2022-09-01T07:43:31;92579.75;;;8.26;100.00
17521;BME280;8878;-33.370;-70.552;2022-09-01T07:46:03;92579.06;;;8.31;100.00
17521;BME280;8878;-33.370;-70.552;2022-09-01T07:48:33;92579.44;;;8.23;100.00
17521;BME280;8878;-33.370;-70.552;2022-09-01T07:51:03;92570.53;;;8.07;100.00
17521;BME280;8878;-33.370;-70.552;2022-09-01T07:53:34;92584.28;;;7.98;100.00
17521;BME280;8878;-33.370;-70.552;2022-09-01T07:56:07;92580.41;;;8.00;100.00
17521;BME280;8878;-33.370;-70.552;2022-09-01T07:58:38;92583.16;;;8.10;100.00
17521;BME280;8878;-33.370;-70.552;2022-09-01T08:01:11;92587.72;;;8.15;100.00
17521;BME280;8878;-33.370;-70.552;2022-09-01T08:03:43;92591.06;;;8.10;100.00
17521;BME280;8878;-33.370;-70.552;2022-09-01T08:06:14;92593.84;;;8.04;100.00
17521;BME280;8878;-33.370;-70.552;2022-09-01T08:08:47;92588.53;;;8.15;100.00
17521;BME280;8878;-33.370;-70.552;2022-09-01T08:11:18;92590.91;;;8.17;100.00
17521;BME280;8878;-33.370;-70.552;2022-09-01T08:13:48;92591.38;;;8.14;100.00
17521;BME280;8878;-33.370;-70.552;2022-09-01T08:16:20;92590.28;;;8.10;100.00
17521;BME280;8878;-33.370;-70.552;2022-09-01T08:18:49;92598.00;;;8.16;100.00
17521;BME280;8878;-33.370;-70.552;2022-09-01T08:21:22;92599.50;;;8.12;100.00
17521;BME280;8878;-33.370;-70.552;2022-09-01T08:23:53;92602.28;;;8.06;100.00
17521;BME280;8878;-33.370;-70.552;2022-09-01T08:26:24;92601.19;;;8.02;100.00
17521;BME280;8878;-33.370;-70.552;2022-09-01T08:28:54;92601.88;;;7.97;100.00
17521;BME280;8878;-33.370;-70.552;2022-09-01T08:31:26;92601.09;;;7.97;100.00
17521;BME280;8878;-33.370;-70.552;2022-09-01T08:33:55;92614.16;;;7.92;100.00
17521;BME280;8878;-33.370;-70.552;2022-09-01T08:36:25;92606.69;;;8.00;100.00
17521;BME280;8878;-33.370;-70.552;2022-09-01T08:38:54;92609.94;;;7.91;100.00
17521;BME280;8878;-33.370;-70.552;2022-09-01T08:41:41;92618.16;;;7.94;100.00
17521;BME280;8878;-33.370;-70.552;2022-09-01T08:44:18;92612.56;;;8.07;100.00
17521;BME280;8878;-33.370;-70.552;2022-09-01T08:46:56;92610.50;;;8.09;100.00
17521;BME280;8878;-33.370;-70.552;2022-09-01T08:49:28;92616.31;;;7.95;100.00
17521;BME280;8878;-33.370;-70.552;2022-09-01T08:52:01;92613.66;;;7.78;100.00
17521;BME280;8878;-33.370;-70.552;2022-09-01T08:54:38;92624.97;;;7.78;100.00
17521;BME280;8878;-33.370;-70.552;2022-09-01T08:57:15;92621.88;;;7.81;100.00
17521;BME280;8878;-33.370;-70.552;2022-09-01T08:59:45;92617.88;;;7.79;100.00
17521;BME280;8878;-33.370;-70.552;2022-09-01T09:02:26;92627.47;;;7.57;100.00
17521;BME280;8878;-33.370;-70.552;2022-09-01T09:05:06;92632.38;;;7.53;100.00
17521;BME280;8878;-33.370;-70.552;2022-09-01T09:07:55;92632.22;;;7.43;100.00
17521;BME280;8878;-33.370;-70.552;2022-09-01T09:10:31;92624.00;;;7.39;100.00
17521;BME280;8878;-33.370;-70.552;2022-09-01T09:13:09;92621.78;;;7.48;100.00
17521;BME280;8878;-33.370;-70.552;2022-09-01T09:15:45;92628.53;;;7.72;100.00
17521;BME280;8878;-33.370;-70.552;2022-09-01T09:18:22;92626.56;;;7.79;100.00
17521;BME280;8878;-33.370;-70.552;2022-09-01T09:20:53;92616.94;;;7.85;100.00
17521;BME280;8878;-33.370;-70.552;2022-09-01T09:23:27;92621.88;;;7.98;100.00
17521;BME280;8878;-33.370;-70.552;2022-09-01T09:25:58;92615.41;;;7.89;100.00
17521;BME280;8878;-33.370;-70.552;2022-09-01T09:28:27;92625.78;;;7.96;100.00
17521;BME280;8878;-33.370;-70.552;2022-09-01T09:31:30;92622.28;;;8.07;100.00
17521;BME280;8878;-33.370;-70.552;2022-09-01T09:34:01;92631.03;;;8.12;100.00
17521;BME280;8878;-33.370;-70.552;2022-09-01T09:36:33;92628.66;;;8.11;100.00
17521;BME280;8878;-33.370;-70.552;2022-09-01T09:39:11;92631.94;;;8.01;100.00
17521;BME280;8878;-33.370;-70.552;2022-09-01T09:41:42;92627.94;;;7.99;100.00
17521;BME280;8878;-33.370;-70.552;2022-09-01T09:44:20;92631.34;;;7.99;100.00
17521;BME280;8878;-33.370;-70.552;2022-09-01T09:46:55;92631.84;;;8.13;100.00
17521;BME280;8878;-33.370;-70.552;2022-09-01T09:49:28;92626.13;;;8.16;100.00
17521;BME280;8878;-33.370;-70.552;2022-09-01T09:52:14;92630.25;;;8.12;100.00
17521;BME280;8878;-33.370;-70.552;2022-09-01T09:55:04;92632.47;;;8.20;100.00
17521;BME280;8878;-33.370;-70.552;2022-09-01T09:57:38;92634.72;;;8.28;100.00
17521;BME280;8878;-33.370;-70.552;2022-09-01T10:00:18;92631.94;;;8.35;100.00
17521;BME280;8878;-33.370;-70.552;2022-09-01T10:02:54;92627.03;;;8.38;100.00
17521;BME280;8878;-33.370;-70.552;2022-09-01T10:05:35;92633.44;;;8.47;100.00
17521;BME280;8878;-33.370;-70.552;2022-09-01T10:08:06;92627.72;;;8.50;100.00
17521;BME280;8878;-33.370;-70.552;2022-09-01T10:10:42;92636.16;;;8.52;100.00
17521;BME280;8878;-33.370;-70.552;2022-09-01T10:13:13;92632.91;;;8.45;100.00
17521;BME280;8878;-33.370;-70.552;2022-09-01T10:15:47;92638.56;;;8.37;100.00
17521;BME280;8878;-33.370;-70.552;2022-09-01T10:18:20;92642.38;;;8.30;100.00
17521;BME280;8878;-33.370;-70.552;2022-09-01T10:20:56;92637.28;;;8.23;100.00
17521;BME280;8878;-33.370;-70.552;2022-09-01T10:23:28;92639.34;;;8.21;100.00
17521;BME280;8878;-33.370;-70.552;2022-09-01T10:26:02;92647.06;;;8.27;100.00
17521;BME280;8878;-33.370;-70.552;2022-09-01T10:28:34;92637.59;;;8.43;100.00
17521;BME280;8878;-33.370;-70.552;2022-09-01T10:31:09;92645.69;;;8.25;100.00
17521;BME280;8878;-33.370;-70.552;2022-09-01T10:33:39;92647.94;;;8.16;100.00
17521;BME280;8878;-33.370;-70.552;2022-09-01T10:36:10;92635.75;;;8.27;100.00
17521;BME280;8878;-33.370;-70.552;2022-09-01T10:38:42;92644.69;;;8.43;100.00
17521;BME280;8878;-33.370;-70.552;2022-09-01T10:41:47;92642.06;;;8.43;100.00
17521;BME280;8878;-33.370;-70.552;2022-09-01T10:44:21;92649.31;;;8.52;100.00
17521;BME280;8878;-33.370;-70.552;2022-09-01T10:46:52;92641.97;;;8.54;100.00
17521;BME280;8878;-33.370;-70.552;2022-09-01T10:49:59;92648.81;;;8.55;100.00
17521;BME280;8878;-33.370;-70.552;2022-09-01T10:52:59;92643.16;;;8.63;100.00
17521;BME280;8878;-33.370;-70.552;2022-09-01T10:55:36;92656.06;;;8.65;100.00
17521;BME280;8878;-33.370;-70.552;2022-09-01T10:58:23;92654.00;;;8.50;100.00
17521;BME280;8878;-33.370;-70.552;2022-09-01T11:00:54;92649.84;;;8.21;100.00
17521;BME280;8878;-33.370;-70.552;2022-09-01T11:03:47;92648.88;;;8.10;100.00
17521;BME280;8878;-33.370;-70.552;2022-09-01T11:06:54;92656.91;;;8.04;100.00
17521;BME280;8878;-33.370;-70.552;2022-09-01T11:09:29;92656.53;;;8.12;100.00
17521;BME280;8878;-33.370;-70.552;2022-09-01T11:12:19;92661.31;;;8.15;100.00
17521;BME280;8878;-33.370;-70.552;2022-09-01T11:14:55;92662.88;;;7.99;100.00
17521;BME280;8878;-33.370;-70.552;2022-09-01T11:17:26;92661.94;;;8.05;100.00
17521;BME280;8878;-33.370;-70.552;2022-09-01T11:20:07;92666.38;;;8.05;100.00
17521;BME280;8878;-33.370;-70.552;2022-09-01T11:22:40;92683.19;;;8.04;100.00
17521;BME280;8878;-33.370;-70.552;2022-09-01T11:25:35;92683.91;;;7.99;100.00
17521;BME280;8878;-33.370;-70.552;2022-09-01T11:30:56;92696.00;;;8.00;100.00
17521;BME280;8878;-33.370;-70.552;2022-09-01T11:33:32;92699.53;;;8.06;100.00
17521;BME280;8878;-33.370;-70.552;2022-09-01T11:36:05;92691.41;;;8.07;100.00
17521;BME280;8878;-33.370;-70.552;2022-09-01T11:38:46;92696.59;;;8.19;100.00
17521;BME280;8878;-33.370;-70.552;2022-09-01T11:41:25;92701.47;;;8.27;100.00
17521;BME280;8878;-33.370;-70.552;2022-09-01T11:44:01;92706.84;;;8.04;100.00
17521;BME280;8878;-33.370;-70.552;2022-09-01T11:46:32;92705.41;;;8.13;100.00
17521;BME280;8878;-33.370;-70.552;2022-09-01T11:49:05;92711.16;;;8.10;100.00
17521;BME280;8878;-33.370;-70.552;2022-09-01T11:51:43;92715.94;;;8.13;100.00
17521;BME280;8878;-33.370;-70.552;2022-09-01T11:54:13;92711.25;;;8.15;100.00
17521;BME280;8878;-33.370;-70.552;2022-09-01T11:56:45;92716.66;;;8.25;100.00
17521;BME280;8878;-33.370;-70.552;2022-09-01T11:59:28;92716.13;;;8.23;100.00
17521;BME280;8878;-33.370;-70.552;2022-09-01T12:01:58;92718.19;;;8.21;100.00
17521;BME280;8878;-33.370;-70.552;2022-09-01T12:04:31;92727.25;;;8.13;100.00
17521;BME280;8878;-33.370;-70.552;2022-09-01T12:07:03;92730.44;;;8.15;100.00
17521;BME280;8878;-33.370;-70.552;2022-09-01T12:09:36;92727.66;;;8.22;100.00
17521;BME280;8878;-33.370;-70.552;2022-09-01T12:12:27;92735.41;;;8.29;100.00
17521;BME280;8878;-33.370;-70.552;2022-09-01T12:15:01;92737.00;;;8.30;100.00
17521;BME280;8878;-33.370;-70.552;2022-09-01T12:17:30;92744.69;;;8.48;100.00
17521;BME280;8878;-33.370;-70.552;2022-09-01T12:20:25;92747.47;;;8.41;100.00
17521;BME280;8878;-33.370;-70.552;2022-09-01T12:22:57;92752.31;;;8.33;100.00
17521;BME280;8878;-33.370;-70.552;2022-09-01T12:25:29;92752.50;;;8.43;100.00
17521;BME280;8878;-33.370;-70.552;2022-09-01T12:28:02;92751.88;;;8.52;100.00
17521;BME280;8878;-33.370;-70.552;2022-09-01T12:30:34;92752.03;;;8.62;100.00
17521;BME280;8878;-33.370;-70.552;2022-09-01T12:33:07;92756.56;;;8.50;100.00
17521;BME280;8878;-33.370;-70.552;2022-09-01T12:35:38;92764.03;;;8.42;100.00
17521;BME280;8878;-33.370;-70.552;2022-09-01T12:38:24;92772.53;;;8.32;100.00
17521;BME280;8878;-33.370;-70.552;2022-09-01T12:40:55;92771.41;;;8.28;100.00
17521;BME280;8878;-33.370;-70.552;2022-09-01T12:43:36;92771.41;;;8.28;100.00
17521;BME280;8878;-33.370;-70.552;2022-09-01T12:46:07;92771.31;;;8.23;100.00
17521;BME280;8878;-33.370;-70.552;2022-09-01T12:48:38;92777.47;;;8.29;100.00
17521;BME280;8878;-33.370;-70.552;2022-09-01T12:51:17;92779.53;;;8.26;100.00
17521;BME280;8878;-33.370;-70.552;2022-09-01T12:53:51;92776.09;;;8.38;100.00
17521;BME280;8878;-33.370;-70.552;2022-09-01T12:56:26;92779.16;;;8.35;100.00
17521;BME280;8878;-33.370;-70.552;2022-09-01T12:59:08;92780.09;;;8.29;100.00
17521;BME280;8878;-33.370;-70.552;2022-09-01T13:01:39;92785.94;;;8.31;100.00
17521;BME280;8878;-33.370;-70.552;2022-09-01T13:04:26;92791.78;;;8.49;100.00
17521;BME280;8878;-33.370;-70.552;2022-09-01T13:07:03;92799.28;;;8.57;100.00
17521;BME280;8878;-33.370;-70.552;2022-09-01T13:09:32;92793.00;;;8.58;100.00
17521;BME280;8878;-33.370;-70.552;2022-09-01T13:12:16;92804.78;;;8.27;100.00
17521;BME280;8878;-33.370;-70.552;2022-09-01T13:14:48;92799.81;;;8.14;100.00
17521;BME280;8878;-33.370;-70.552;2022-09-01T13:17:17;92797.69;;;8.28;100.00